sensor_id;sensor_type;location;lat;lon;timestamp;temperature;humidity
25332;DHT22;13284;52.748;13.452;2023-03-23T00:01:54;11.10;99.90
25332;DHT22;13284;52.748;13.452;2023-03-23T00:04:19;11.00;99.90
25332;DHT22;13284;52.748;13.452;2023-03-23T00:06:46;11.00;99.90
25332;DHT22;13284;52.748;13.452;2023-03-23T00:09:13;11.00;99.90
25332;DHT22;13284;52.748;13.452;2023-03-23T00:11:40;11.00;99.90
25332;DHT22;13284;52.748;13.452;2023-03-23T00:14:06;11.00;99.90
25332;DHT22;13284;52.748;13.452;2023-03-23T00:16:40;11.00;99.90
25332;DHT22;13284;52.748;13.452;2023-03-23T00:19:11;11.10;99.90
25332;DHT22;13284;52.748;13.452;2023-03-23T00:21:40;11.10;99.90
25332;DHT22;13284;52.748;13.452;2023-03-23T00:24:12;11.10;99.90
25332;DHT22;13284;52.748;13.452;2023-03-23T00:26:41;11.20;99.90
25332;DHT22;13284;52.748;13.452;2023-03-23T00:31:39;11.20;99.90
25332;DHT22;13284;52.748;13.452;2023-03-23T00:34:05;11.10;99.90
25332;DHT22;13284;52.748;13.452;2023-03-23T00:36:34;11.10;99.90
25332;DHT22;13284;52.748;13.452;2023-03-23T00:39:03;11.10;99.90
25332;DHT22;13284;52.748;13.452;2023-03-23T00:41:30;11.00;99.90
25332;DHT22;13284;52.748;13.452;2023-03-23T00:43:57;11.10;99.90
25332;DHT22;13284;52.748;13.452;2023-03-23T00:46:23;11.00;99.90
25332;DHT22;13284;52.748;13.452;2023-03-23T00:48:50;11.10;99.90
25332;DHT22;13284;52.748;13.452;2023-03-23T00:51:19;11.10;99.90
25332;DHT22;13284;52.748;13.452;2023-03-23T00:53:45;11.00;99.90
25332;DHT22;13284;52.748;13.452;2023-03-23T00:56:11;11.00;99.90
25332;DHT22;13284;52.748;13.452;2023-03-23T00:58:37;11.00;99.90
25332;DHT22;13284;52.748;13.452;2023-03-23T01:01:02;10.90;99.90
25332;DHT22;13284;52.748;13.452;2023-03-23T01:03:31;10.90;99.90
25332;DHT22;13284;52.748;13.452;2023-03-23T01:05:57;10.90;99.90
25332;DHT22;13284;52.748;13.452;2023-03-23T01:08:23;10.70;99.90
25332;DHT22;13284;52.748;13.452;2023-03-23T01:10:50;10.80;99.90
25332;DHT22;13284;52.748;13.452;2023-03-23T01:13:16;10.70;99.90
25332;DHT22;13284;52.748;13.452;2023-03-23T01:15:43;10.70;99.90
25332;DHT22;13284;52.748;13.452;2023-03-23T01:18:10;10.70;99.90
25332;DHT22;13284;52.748;13.452;2023-03-23T01:20:36;10.60;99.90
25332;DHT22;13284;52.748;13.452;2023-03-23T01:23:03;10.50;99.90
25332;DHT22;13284;52.748;13.452;2023-03-23T01:25:35;10.50;99.90
25332;DHT22;13284;52.748;13.452;2023-03-23T01:28:01;10.50;99.90
25332;DHT22;13284;52.748;13.452;2023-03-23T01:30:26;10.40;99.90
25332;DHT22;13284;52.748;13.452;2023-03-23T01:32:53;10.40;99.90
25332;DHT22;13284;52.748;13.452;2023-03-23T01:35:19;10.50;99.90
25332;DHT22;13284;52.748;13.452;2023-03-23T01:37:45;10.50;99.90
25332;DHT22;13284;52.748;13.452;2023-03-23T01:40:11;10.50;99.90
25332;DHT22;13284;52.748;13.452;2023-03-23T01:42:38;10.60;99.90
25332;DHT22;13284;52.748;13.452;2023-03-23T01:45:24;10.70;99.90
25332;DHT22;13284;52.748;13.452;2023-03-23T01:47:59;10.70;99.90
25332;DHT22;13284;52.748;13.452;2023-03-23T01:50:26;10.80;99.90
25332;DHT22;13284;52.748;13.452;2023-03-23T01:53:00;10.80;99.90
25332;DHT22;13284;52.748;13.452;2023-03-23T01:55:27;10.80;99.90
25332;DHT22;13284;52.748;13.452;2023-03-23T01:57:55;10.80;99.90
25332;DHT22;13284;52.748;13.452;2023-03-23T02:00:22;10.80;99.90
25332;DHT22;13284;52.748;13.452;2023-03-23T02:02:49;10.80;99.90
25332;DHT22;13284;52.748;13.452;2023-03-23T02:05:26;10.80;99.90
25332;DHT22;13284;52.748;13.452;2023-03-23T02:07:54;10.90;99.90
25332;DHT22;13284;52.748;13.452;2023-03-23T02:10:24;10.90;99.90
25332;DHT22;13284;52.748;13.452;2023-03-23T02:12:49;11.00;99.90
25332;DHT22;13284;52.748;13.452;2023-03-23T02:15:15;11.00;99.90
25332;DHT22;13284;52.748;13.452;2023-03-23T02:17:49;11.00;99.90
25332;DHT22;13284;52.748;13.452;2023-03-23T02:23:35;11.20;99.90
25332;DHT22;13284;52.748;13.452;2023-03-23T02:26:32;11.30;99.90
25332;DHT22;13284;52.748;13.452;2023-03-23T02:37:13;11.40;99.90
25332;DHT22;13284;52.748;13.452;2023-03-23T02:39:44;11.40;99.90
25332;DHT22;13284;52.748;13.452;2023-03-23T02:42:15;11.50;99.90
25332;DHT22;13284;52.748;13.452;2023-03-23T02:44:44;11.50;99.90
25332;DHT22;13284;52.748;13.452;2023-03-23T02:47:18;11.50;99.90
25332;DHT22;13284;52.748;13.452;2023-03-23T02:49:47;11.60;99.90
25332;DHT22;13284;52.748;13.452;2023-03-23T02:52:19;11.60;99.90
25332;DHT22;13284;52.748;13.452;2023-03-23T02:54:48;11.60;99.90
25332;DHT22;13284;52.748;13.452;2023-03-23T02:57:14;11.50;99.90
25332;DHT22;13284;52.748;13.452;2023-03-23T02:59:40;11.50;99.90
25332;DHT22;13284;52.748;13.452;2023-03-23T03:02:45;11.40;99.90
25332;DHT22;13284;52.748;13.452;2023-03-23T03:05:50;11.30;99.90
25332;DHT22;13284;52.748;13.452;2023-03-23T03:08:30;11.30;99.90
25332;DHT22;13284;52.748;13.452;2023-03-23T03:16:33;11.30;99.90
25332;DHT22;13284;52.748;13.452;2023-03-23T03:19:12;11.30;99.90
25332;DHT22;13284;52.748;13.452;2023-03-23T03:21:42;11.30;99.90
25332;DHT22;13284;52.748;13.452;2023-03-23T03:24:11;11.30;99.90
25332;DHT22;13284;52.748;13.452;2023-03-23T03:26:44;11.30;99.90
25332;DHT22;13284;52.748;13.452;2023-03-23T03:29:14;11.30;99.90
25332;DHT22;13284;52.748;13.452;2023-03-23T03:31:44;11.20;99.90
25332;DHT22;13284;52.748;13.452;2023-03-23T03:34:11;11.10;99.90
25332;DHT22;13284;52.748;13.452;2023-03-23T03:36:37;11.10;99.90
25332;DHT22;13284;52.748;13.452;2023-03-23T03:39:08;11.00;99.90
25332;DHT22;13284;52.748;13.452;2023-03-23T03:41:35;11.00;99.90
25332;DHT22;13284;52.748;13.452;2023-03-23T03:44:03;10.90;99.90
25332;DHT22;13284;52.748;13.452;2023-03-23T03:46:28;10.80;99.90
25332;DHT22;13284;52.748;13.452;2023-03-23T03:48:59;10.80;99.90
25332;DHT22;13284;52.748;13.452;2023-03-23T03:51:27;10.70;99.90
25332;DHT22;13284;52.748;13.452;2023-03-23T03:53:53;10.70;99.90
25332;DHT22;13284;52.748;13.452;2023-03-23T03:56:19;10.60;99.90
25332;DHT22;13284;52.748;13.452;2023-03-23T03:58:48;10.60;99.90
25332;DHT22;13284;52.748;13.452;2023-03-23T04:01:15;10.60;99.90
25332;DHT22;13284;52.748;13.452;2023-03-23T04:03:41;10.60;99.90
25332;DHT22;13284;52.748;13.452;2023-03-23T04:06:07;10.60;99.90
25332;DHT22;13284;52.748;13.452;2023-03-23T04:08:38;10.60;99.90
25332;DHT22;13284;52.748;13.452;2023-03-23T04:11:04;10.60;99.90
25332;DHT22;13284;52.748;13.452;2023-03-23T04:13:31;10.60;99.90
25332;DHT22;13284;52.748;13.452;2023-03-23T04:15:56;10.50;99.90
25332;DHT22;13284;52.748;13.452;2023-03-23T04:18:22;10.50;99.90
25332;DHT22;13284;52.748;13.452;2023-03-23T04:20:50;10.50;99.90
25332;DHT22;13284;52.748;13.452;2023-03-23T04:23:17;10.40;99.90
25332;DHT22;13284;52.748;13.452;2023-03-23T04:25:47;10.40;99.90
25332;DHT22;13284;52.748;13.452;2023-03-23T04:28:14;10.40;99.90
25332;DHT22;13284;52.748;13.452;2023-03-23T04:30:42;10.40;99.90
25332;DHT22;13284;52.748;13.452;2023-03-23T04:33:09;10.40;99.90
25332;DHT22;13284;52.748;13.452;2023-03-23T04:35:40;10.40;99.90
25332;DHT22;13284;52.748;13.452;2023-03-23T04:38:06;10.40;99.90
25332;DHT22;13284;52.748;13.452;2023-03-23T04:40:36;10.50;99.90
25332;DHT22;13284;52.748;13.452;2023-03-23T04:43:02;10.40;99.90
25332;DHT22;13284;52.748;13.452;2023-03-23T04:45:32;10.40;99.90
25332;DHT22;13284;52.748;13.452;2023-03-23T04:47:57;10.40;99.90
25332;DHT22;13284;52.748;13.452;2023-03-23T04:50:29;10.40;99.90
25332;DHT22;13284;52.748;13.452;2023-03-23T04:52:58;10.30;99.90
25332;DHT22;13284;52.748;13.452;2023-03-23T04:55:25;10.30;99.90
25332;DHT22;13284;52.748;13.452;2023-03-23T04:57:51;10.30;99.90
25332;DHT22;13284;52.748;13.452;2023-03-23T05:00:18;10.20;99.90
25332;DHT22;13284;52.748;13.452;2023-03-23T05:02:45;10.20;99.90
25332;DHT22;13284;52.748;13.452;2023-03-23T05:05:17;10.20;99.90
25332;DHT22;13284;52.748;13.452;2023-03-23T05:07:42;10.20;99.90
25332;DHT22;13284;52.748;13.452;2023-03-23T05:10:10;10.10;99.90
25332;DHT22;13284;52.748;13.452;2023-03-23T05:12:36;10.20;99.90
25332;DHT22;13284;52.748;13.452;2023-03-23T05:15:02;10.20;99.90
25332;DHT22;13284;52.748;13.452;2023-03-23T05:17:28;10.20;99.90
25332;DHT22;13284;52.748;13.452;2023-03-23T05:19:55;10.20;99.90
25332;DHT22;13284;52.748;13.452;2023-03-23T05:22:22;10.20;99.90
25332;DHT22;13284;52.748;13.452;2023-03-23T05:24:48;10.20;99.90
25332;DHT22;13284;52.748;13.452;2023-03-23T05:27:17;10.20;99.90
25332;DHT22;13284;52.748;13.452;2023-03-23T05:29:44;10.20;99.90
25332;DHT22;13284;52.748;13.452;2023-03-23T05:32:11;10.20;99.90
25332;DHT22;13284;52.748;13.452;2023-03-23T05:34:37;10.20;99.90
25332;DHT22;13284;52.748;13.452;2023-03-23T05:37:03;10.20;99.90
25332;DHT22;13284;52.748;13.452;2023-03-23T05:39:30;10.20;99.90
25332;DHT22;13284;52.748;13.452;2023-03-23T05:41:56;10.20;99.90
25332;DHT22;13284;52.748;13.452;2023-03-23T05:44:22;10.20;99.90
25332;DHT22;13284;52.748;13.452;2023-03-23T05:46:48;10.20;99.90
25332;DHT22;13284;52.748;13.452;2023-03-23T05:49:14;10.20;99.90
25332;DHT22;13284;52.748;13.452;2023-03-23T05:51:42;10.10;99.90
25332;DHT22;13284;52.748;13.452;2023-03-23T05:54:07;10.10;99.90
25332;DHT22;13284;52.748;13.452;2023-03-23T05:56:33;10.10;99.90
25332;DHT22;13284;52.748;13.452;2023-03-23T05:59:00;10.10;99.90
25332;DHT22;13284;52.748;13.452;2023-03-23T06:01:26;10.20;99.90
25332;DHT22;13284;52.748;13.452;2023-03-23T06:03:52;10.20;99.90
25332;DHT22;13284;52.748;13.452;2023-03-23T06:06:20;10.10;99.90
25332;DHT22;13284;52.748;13.452;2023-03-23T06:08:46;10.10;99.90
25332;DHT22;13284;52.748;13.452;2023-03-23T06:11:11;10.20;99.90
25332;DHT22;13284;52.748;13.452;2023-03-23T06:13:37;10.10;99.90
25332;DHT22;13284;52.748;13.452;2023-03-23T06:16:03;10.10;99.90
25332;DHT22;13284;52.748;13.452;2023-03-23T06:18:29;10.10;99.90
25332;DHT22;13284;52.748;13.452;2023-03-23T06:20:58;10.10;99.90
25332;DHT22;13284;52.748;13.452;2023-03-23T06:23:24;10.10;99.90
25332;DHT22;13284;52.748;13.452;2023-03-23T06:25:54;10.10;99.90
25332;DHT22;13284;52.748;13.452;2023-03-23T06:28:19;10.10;99.90
25332;DHT22;13284;52.748;13.452;2023-03-23T06:30:45;10.10;99.90
25332;DHT22;13284;52.748;13.452;2023-03-23T06:33:11;10.00;99.90
25332;DHT22;13284;52.748;13.452;2023-03-23T06:35:36;10.10;99.90
25332;DHT22;13284;52.748;13.452;2023-03-23T06:38:02;10.10;99.90
25332;DHT22;13284;52.748;13.452;2023-03-23T06:40:28;10.00;99.90
25332;DHT22;13284;52.748;13.452;2023-03-23T06:42:56;10.10;99.90
25332;DHT22;13284;52.748;13.452;2023-03-23T06:45:23;10.10;99.90
25332;DHT22;13284;52.748;13.452;2023-03-23T06:47:48;10.10;99.90
25332;DHT22;13284;52.748;13.452;2023-03-23T06:50:15;10.10;99.90
25332;DHT22;13284;52.748;13.452;2023-03-23T06:52:45;10.10;99.90
25332;DHT22;13284;52.748;13.452;2023-03-23T06:55:11;10.10;99.90
25332;DHT22;13284;52.748;13.452;2023-03-23T06:57:36;10.10;99.90
25332;DHT22;13284;52.748;13.452;2023-03-23T07:00:03;10.10;99.90
25332;DHT22;13284;52.748;13.452;2023-03-23T07:02:30;10.10;99.90
25332;DHT22;13284;52.748;13.452;2023-03-23T07:04:55;10.20;99.90
25332;DHT22;13284;52.748;13.452;2023-03-23T07:07:22;10.20;99.90
25332;DHT22;13284;52.748;13.452;2023-03-23T07:09:48;10.20;99.90
25332;DHT22;13284;52.748;13.452;2023-03-23T07:12:13;10.20;99.90
25332;DHT22;13284;52.748;13.452;2023-03-23T07:14:39;10.20;99.90
25332;DHT22;13284;52.748;13.452;2023-03-23T07:17:05;10.20;99.90
25332;DHT22;13284;52.748;13.452;2023-03-23T07:19:31;10.30;99.90
25332;DHT22;13284;52.748;13.452;2023-03-23T07:21:56;10.30;99.90
25332;DHT22;13284;52.748;13.452;2023-03-23T07:24:22;10.30;99.90
25332;DHT22;13284;52.748;13.452;2023-03-23T07:26:47;10.30;99.90
25332;DHT22;13284;52.748;13.452;2023-03-23T07:29:13;10.30;99.90
25332;DHT22;13284;52.748;13.452;2023-03-23T07:31:38;10.30;99.90
25332;DHT22;13284;52.748;13.452;2023-03-23T07:34:04;10.30;99.90
25332;DHT22;13284;52.748;13.452;2023-03-23T07:36:30;10.40;99.90
25332;DHT22;13284;52.748;13.452;2023-03-23T07:38:55;10.30;99.90
25332;DHT22;13284;52.748;13.452;2023-03-23T07:41:21;10.40;99.90
25332;DHT22;13284;52.748;13.452;2023-03-23T07:43:47;10.40;99.90
25332;DHT22;13284;52.748;13.452;2023-03-23T07:46:13;10.40;99.90
25332;DHT22;13284;52.748;13.452;2023-03-23T07:48:39;10.50;99.90
25332;DHT22;13284;52.748;13.452;2023-03-23T07:51:06;10.60;99.90
25332;DHT22;13284;52.748;13.452;2023-03-23T07:53:32;10.80;99.90
25332;DHT22;13284;52.748;13.452;2023-03-23T07:55:58;10.80;99.90
25332;DHT22;13284;52.748;13.452;2023-03-23T07:58:24;10.90;99.90
25332;DHT22;13284;52.748;13.452;2023-03-23T08:00:51;10.90;99.90
25332;DHT22;13284;52.748;13.452;2023-03-23T08:03:18;11.00;99.90
25332;DHT22;13284;52.748;13.452;2023-03-23T08:05:43;11.00;99.90
25332;DHT22;13284;52.748;13.452;2023-03-23T08:08:09;11.00;99.90
25332;DHT22;13284;52.748;13.452;2023-03-23T08:10:35;11.00;99.90
25332;DHT22;13284;52.748;13.452;2023-03-23T08:13:01;11.00;99.90
25332;DHT22;13284;52.748;13.452;2023-03-23T08:15:27;11.00;99.90
25332;DHT22;13284;52.748;13.452;2023-03-23T08:17:54;11.00;99.90
25332;DHT22;13284;52.748;13.452;2023-03-23T08:20:20;11.00;99.90
25332;DHT22;13284;52.748;13.452;2023-03-23T08:22:55;11.00;99.90
25332;DHT22;13284;52.748;13.452;2023-03-23T08:25:21;11.10;99.90
25332;DHT22;13284;52.748;13.452;2023-03-23T08:27:47;11.10;99.90
25332;DHT22;13284;52.748;13.452;2023-03-23T08:30:16;11.10;99.90
25332;DHT22;13284;52.748;13.452;2023-03-23T08:32:42;11.10;99.90
25332;DHT22;13284;52.748;13.452;2023-03-23T08:35:09;11.20;99.90
25332;DHT22;13284;52.748;13.452;2023-03-23T08:37:36;11.20;99.90
25332;DHT22;13284;52.748;13.452;2023-03-23T08:40:03;11.20;99.90
25332;DHT22;13284;52.748;13.452;2023-03-23T08:42:34;11.30;99.90
25332;DHT22;13284;52.748;13.452;2023-03-23T08:45:00;11.30;99.90
25332;DHT22;13284;52.748;13.452;2023-03-23T08:47:26;11.50;99.90
25332;DHT22;13284;52.748;13.452;2023-03-23T08:49:52;11.50;99.90
25332;DHT22;13284;52.748;13.452;2023-03-23T08:52:19;11.60;99.90
25332;DHT22;13284;52.748;13.452;2023-03-23T08:54:44;11.60;99.90
25332;DHT22;13284;52.748;13.452;2023-03-23T08:57:13;11.60;99.90
25332;DHT22;13284;52.748;13.452;2023-03-23T08:59:40;11.60;99.90
25332;DHT22;13284;52.748;13.452;2023-03-23T09:02:05;11.60;99.90
25332;DHT22;13284;52.748;13.452;2023-03-23T09:04:32;11.60;99.90
25332;DHT22;13284;52.748;13.452;2023-03-23T09:06:57;11.60;99.90
25332;DHT22;13284;52.748;13.452;2023-03-23T09:09:23;11.60;99.90
25332;DHT22;13284;52.748;13.452;2023-03-23T09:11:49;11.50;99.90
25332;DHT22;13284;52.748;13.452;2023-03-23T09:14:15;11.60;99.90
25332;DHT22;13284;52.748;13.452;2023-03-23T09:16:41;11.60;99.90
25332;DHT22;13284;52.748;13.452;2023-03-23T09:19:07;11.60;99.90
25332;DHT22;13284;52.748;13.452;2023-03-23T09:21:34;11.70;99.90
25332;DHT22;13284;52.748;13.452;2023-03-23T09:24:00;11.80;99.90
25332;DHT22;13284;52.748;13.452;2023-03-23T09:26:27;11.90;99.90
25332;DHT22;13284;52.748;13.452;2023-03-23T09:28:53;12.00;99.90
25332;DHT22;13284;52.748;13.452;2023-03-23T09:31:18;12.20;99.90
25332;DHT22;13284;52.748;13.452;2023-03-23T09:33:47;12.30;99.90
25332;DHT22;13284;52.748;13.452;2023-03-23T09:36:17;12.50;99.90
25332;DHT22;13284;52.748;13.452;2023-03-23T09:38:43;12.80;99.90
25332;DHT22;13284;52.748;13.452;2023-03-23T09:41:26;13.20;99.90
25332;DHT22;13284;52.748;13.452;2023-03-23T09:47:25;13.10;99.90
25332;DHT22;13284;52.748;13.452;2023-03-23T09:50:01;13.10;99.90
25332;DHT22;13284;52.748;13.452;2023-03-23T09:55:11;13.80;99.90
25332;DHT22;13284;52.748;13.452;2023-03-23T09:57:47;14.00;99.90
25332;DHT22;13284;52.748;13.452;2023-03-23T10:03:21;14.40;99.90
25332;DHT22;13284;52.748;13.452;2023-03-23T10:05:52;14.30;99.90
25332;DHT22;13284;52.748;13.452;2023-03-23T10:08:26;14.20;99.90
25332;DHT22;13284;52.748;13.452;2023-03-23T10:11:12;14.20;99.90
25332;DHT22;13284;52.748;13.452;2023-03-23T10:14:02;14.10;99.90
25332;DHT22;13284;52.748;13.452;2023-03-23T10:16:36;14.00;99.90
25332;DHT22;13284;52.748;13.452;2023-03-23T10:19:14;13.80;99.90
25332;DHT22;13284;52.748;13.452;2023-03-23T10:21:47;13.70;99.90
25332;DHT22;13284;52.748;13.452;2023-03-23T10:24:17;13.60;99.90
25332;DHT22;13284;52.748;13.452;2023-03-23T10:29:41;13.60;99.90
25332;DHT22;13284;52.748;13.452;2023-03-23T10:32:14;13.70;99.90
25332;DHT22;13284;52.748;13.452;2023-03-23T10:35:00;13.80;99.90
25332;DHT22;13284;52.748;13.452;2023-03-23T10:37:31;14.20;99.90
25332;DHT22;13284;52.748;13.452;2023-03-23T10:39:59;14.30;99.90
25332;DHT22;13284;52.748;13.452;2023-03-23T10:42:36;14.30;99.90
25332;DHT22;13284;52.748;13.452;2023-03-23T10:45:17;14.30;99.90
25332;DHT22;13284;52.748;13.452;2023-03-23T10:50:52;14.40;99.90
25332;DHT22;13284;52.748;13.452;2023-03-23T10:53:30;14.50;99.90
25332;DHT22;13284;52.748;13.452;2023-03-23T10:55:58;14.50;99.90
25332;DHT22;13284;52.748;13.452;2023-03-23T10:58:29;14.70;99.90
25332;DHT22;13284;52.748;13.452;2023-03-23T11:00:56;14.70;99.90
25332;DHT22;13284;52.748;13.452;2023-03-23T11:06:01;14.60;99.90
25332;DHT22;13284;52.748;13.452;2023-03-23T11:08:38;14.50;99.90
25332;DHT22;13284;52.748;13.452;2023-03-23T11:11:28;14.50;99.90
25332;DHT22;13284;52.748;13.452;2023-03-23T11:14:00;14.50;99.90
25332;DHT22;13284;52.748;13.452;2023-03-23T11:16:33;14.30;99.90
25332;DHT22;13284;52.748;13.452;2023-03-23T11:19:00;14.40;99.90
25332;DHT22;13284;52.748;13.452;2023-03-23T11:21:37;14.40;99.90
25332;DHT22;13284;52.748;13.452;2023-03-23T11:24:04;14.30;99.90
25332;DHT22;13284;52.748;13.452;2023-03-23T11:26:32;14.40;99.90
25332;DHT22;13284;52.748;13.452;2023-03-23T11:29:16;14.40;99.90
25332;DHT22;13284;52.748;13.452;2023-03-23T11:32:04;14.50;99.90
25332;DHT22;13284;52.748;13.452;2023-03-23T11:34:35;14.50;99.90
25332;DHT22;13284;52.748;13.452;2023-03-23T11:37:05;14.50;99.90
25332;DHT22;13284;52.748;13.452;2023-03-23T11:39:33;14.50;99.90
25332;DHT22;13284;52.748;13.452;2023-03-23T11:42:02;14.50;99.90
25332;DHT22;13284;52.748;13.452;2023-03-23T11:44:41;14.50;99.90
25332;DHT22;13284;52.748;13.452;2023-03-23T11:47:23;14.70;99.90
25332;DHT22;13284;52.748;13.452;2023-03-23T11:49:53;14.70;99.90
25332;DHT22;13284;52.748;13.452;2023-03-23T11:52:49;14.60;99.90
25332;DHT22;13284;52.748;13.452;2023-03-23T11:55:29;14.70;99.90
25332;DHT22;13284;52.748;13.452;2023-03-23T11:58:02;14.70;99.90
25332;DHT22;13284;52.748;13.452;2023-03-23T12:00:30;14.50;99.90
25332;DHT22;13284;52.748;13.452;2023-03-23T12:03:05;14.40;99.90
25332;DHT22;13284;52.748;13.452;2023-03-23T12:16:53;14.40;99.90
25332;DHT22;13284;52.748;13.452;2023-03-23T12:19:37;14.50;99.90
25332;DHT22;13284;52.748;13.452;2023-03-23T12:31:10;14.60;99.90
25332;DHT22;13284;52.748;13.452;2023-03-23T12:33:59;14.60;99.90
25332;DHT22;13284;52.748;13.452;2023-03-23T12:36:38;14.60;99.90
25332;DHT22;13284;52.748;13.452;2023-03-23T12:39:37;14.60;99.90
25332;DHT22;13284;52.748;13.452;2023-03-23T12:44:50;14.40;99.90
25332;DHT22;13284;52.748;13.452;2023-03-23T12:47:42;14.40;99.90
25332;DHT22;13284;52.748;13.452;2023-03-23T12:53:06;14.50;99.90
25332;DHT22;13284;52.748;13.452;2023-03-23T12:55:45;14.70;99.90
25332;DHT22;13284;52.748;13.452;2023-03-23T12:58:15;14.70;99.90
25332;DHT22;13284;52.748;13.452;2023-03-23T13:00:59;14.70;99.90
25332;DHT22;13284;52.748;13.452;2023-03-23T13:06:29;14.90;99.90
25332;DHT22;13284;52.748;13.452;2023-03-23T13:11:38;15.20;99.90
25332;DHT22;13284;52.748;13.452;2023-03-23T13:14:49;15.60;99.90
25332;DHT22;13284;52.748;13.452;2023-03-23T13:23:17;16.10;99.90
25332;DHT22;13284;52.748;13.452;2023-03-23T13:28:25;15.90;99.90
25332;DHT22;13284;52.748;13.452;2023-03-23T13:31:14;15.80;99.90
25332;DHT22;13284;52.748;13.452;2023-03-23T13:33:46;15.90;99.90
25332;DHT22;13284;52.748;13.452;2023-03-23T13:36:16;15.80;99.90
25332;DHT22;13284;52.748;13.452;2023-03-23T13:38:50;16.00;99.90
25332;DHT22;13284;52.748;13.452;2023-03-23T13:41:18;15.90;99.90
25332;DHT22;13284;52.748;13.452;2023-03-23T13:43:47;15.80;99.90
25332;DHT22;13284;52.748;13.452;2023-03-23T13:49:13;16.10;99.90
25332;DHT22;13284;52.748;13.452;2023-03-23T13:56:56;15.70;99.90
25332;DHT22;13284;52.748;13.452;2023-03-23T13:59:35;15.60;99.90
25332;DHT22;13284;52.748;13.452;2023-03-23T14:04:51;15.20;99.90
25332;DHT22;13284;52.748;13.452;2023-03-23T14:07:17;15.00;99.90
25332;DHT22;13284;52.748;13.452;2023-03-23T14:09:46;15.00;99.90
25332;DHT22;13284;52.748;13.452;2023-03-23T14:12:19;14.90;99.90
25332;DHT22;13284;52.748;13.452;2023-03-23T14:14:58;15.00;99.90
25332;DHT22;13284;52.748;13.452;2023-03-23T14:17:29;15.10;99.90
25332;DHT22;13284;52.748;13.452;2023-03-23T14:19:57;15.40;99.90
25332;DHT22;13284;52.748;13.452;2023-03-23T14:22:25;15.80;99.90
25332;DHT22;13284;52.748;13.452;2023-03-23T14:24:53;16.20;99.90
25332;DHT22;13284;52.748;13.452;2023-03-23T14:27:23;16.30;99.90
25332;DHT22;13284;52.748;13.452;2023-03-23T14:30:00;16.40;99.90
25332;DHT22;13284;52.748;13.452;2023-03-23T14:32:29;16.90;99.90
25332;DHT22;13284;52.748;13.452;2023-03-23T14:34:56;17.00;99.90
25332;DHT22;13284;52.748;13.452;2023-03-23T14:37:23;17.00;99.90
25332;DHT22;13284;52.748;13.452;2023-03-23T14:39:51;17.00;99.90
25332;DHT22;13284;52.748;13.452;2023-03-23T14:42:21;17.50;99.90
25332;DHT22;13284;52.748;13.452;2023-03-23T14:44:49;17.40;99.90
25332;DHT22;13284;52.748;13.452;2023-03-23T14:47:43;17.20;99.90
25332;DHT22;13284;52.748;13.452;2023-03-23T14:50:41;17.20;99.90
25332;DHT22;13284;52.748;13.452;2023-03-23T14:53:35;17.50;99.90
25332;DHT22;13284;52.748;13.452;2023-03-23T14:56:06;17.40;99.90
25332;DHT22;13284;52.748;13.452;2023-03-23T14:58:34;17.30;99.90
25332;DHT22;13284;52.748;13.452;2023-03-23T15:01:04;17.10;99.90
25332;DHT22;13284;52.748;13.452;2023-03-23T15:03:35;16.90;99.90
25332;DHT22;13284;52.748;13.452;2023-03-23T15:06:05;16.90;99.90
25332;DHT22;13284;52.748;13.452;2023-03-23T15:08:33;17.10;99.90
25332;DHT22;13284;52.748;13.452;2023-03-23T15:13:29;16.60;99.90
25332;DHT22;13284;52.748;13.452;2023-03-23T15:16:05;16.50;99.90
25332;DHT22;13284;52.748;13.452;2023-03-23T15:18:35;16.40;99.90
25332;DHT22;13284;52.748;13.452;2023-03-23T15:21:10;16.50;99.90
25332;DHT22;13284;52.748;13.452;2023-03-23T15:23:41;16.40;99.90
25332;DHT22;13284;52.748;13.452;2023-03-23T15:26:22;16.50;99.90
25332;DHT22;13284;52.748;13.452;2023-03-23T15:28:48;16.50;99.90
25332;DHT22;13284;52.748;13.452;2023-03-23T15:31:14;16.50;99.90
25332;DHT22;13284;52.748;13.452;2023-03-23T15:33:40;16.60;99.90
25332;DHT22;13284;52.748;13.452;2023-03-23T15:36:15;16.60;99.90
25332;DHT22;13284;52.748;13.452;2023-03-23T15:38:44;16.10;99.90
25332;DHT22;13284;52.748;13.452;2023-03-23T15:41:26;16.20;99.90
25332;DHT22;13284;52.748;13.452;2023-03-23T15:43:54;15.80;99.90
25332;DHT22;13284;52.748;13.452;2023-03-23T15:46:25;15.50;99.90
25332;DHT22;13284;52.748;13.452;2023-03-23T15:48:53;15.20;99.90
25332;DHT22;13284;52.748;13.452;2023-03-23T15:51:29;15.10;99.90
25332;DHT22;13284;52.748;13.452;2023-03-23T15:53:56;15.00;99.90
25332;DHT22;13284;52.748;13.452;2023-03-23T15:56:22;14.90;99.90
25332;DHT22;13284;52.748;13.452;2023-03-23T15:58:48;14.90;99.90
25332;DHT22;13284;52.748;13.452;2023-03-23T16:01:25;14.70;99.90
25332;DHT22;13284;52.748;13.452;2023-03-23T16:03:55;14.60;99.90
25332;DHT22;13284;52.748;13.452;2023-03-23T16:06:26;14.50;99.90
25332;DHT22;13284;52.748;13.452;2023-03-23T16:08:53;14.40;99.90
25332;DHT22;13284;52.748;13.452;2023-03-23T16:11:19;14.20;99.90
25332;DHT22;13284;52.748;13.452;2023-03-23T16:13:44;14.10;99.90
25332;DHT22;13284;52.748;13.452;2023-03-23T16:18:56;13.90;99.90
25332;DHT22;13284;52.748;13.452;2023-03-23T16:21:22;13.90;99.90
25332;DHT22;13284;52.748;13.452;2023-03-23T16:23:50;13.70;99.90
25332;DHT22;13284;52.748;13.452;2023-03-23T16:26:16;13.60;99.90
25332;DHT22;13284;52.748;13.452;2023-03-23T16:29:12;13.50;99.90
25332;DHT22;13284;52.748;13.452;2023-03-23T16:32:15;13.30;99.90
25332;DHT22;13284;52.748;13.452;2023-03-23T16:34:41;13.30;99.90
25332;DHT22;13284;52.748;13.452;2023-03-23T16:37:09;13.40;99.90
25332;DHT22;13284;52.748;13.452;2023-03-23T16:39:36;13.40;99.90
25332;DHT22;13284;52.748;13.452;2023-03-23T16:42:04;13.30;99.90
25332;DHT22;13284;52.748;13.452;2023-03-23T16:44:30;13.30;99.90
25332;DHT22;13284;52.748;13.452;2023-03-23T16:46:58;13.20;99.90
25332;DHT22;13284;52.748;13.452;2023-03-23T16:49:23;12.90;99.90
25332;DHT22;13284;52.748;13.452;2023-03-23T16:51:52;12.90;99.90
25332;DHT22;13284;52.748;13.452;2023-03-23T16:54:18;12.90;99.90
25332;DHT22;13284;52.748;13.452;2023-03-23T16:56:43;12.90;99.90
25332;DHT22;13284;52.748;13.452;2023-03-23T16:59:12;13.00;99.90
25332;DHT22;13284;52.748;13.452;2023-03-23T17:01:37;12.90;99.90
25332;DHT22;13284;52.748;13.452;2023-03-23T17:04:03;12.80;99.90
25332;DHT22;13284;52.748;13.452;2023-03-23T17:06:29;12.90;99.90